createdAt,value
2022-11-16T00:22:47.374Z,8.80
2022-11-16T00:37:38.780Z,8.50
2022-11-16T00:42:35.917Z,7.90
2022-11-16T01:12:16.390Z,7.60
2022-11-16T01:14:47.996Z,7.90
2022-11-16T01:17:16.728Z,7.90
2022-11-16T02:04:42.071Z,7.30
2022-11-16T02:08:01.558Z,7.20
2022-11-16T02:14:05.259Z,7.30
2022-11-16T02:17:21.560Z,7.10
2022-11-16T02:20:31.215Z,7.40
2022-11-16T02:23:29.532Z,6.70
2022-11-16T02:26:28.587Z,7.10
2022-11-16T02:30:00.168Z,7.10
2022-11-16T02:33:04.022Z,7.50
2022-11-16T02:35:51.031Z,7.00
2022-11-16T02:38:45.777Z,7.00
2022-11-16T02:41:19.972Z,7.00
2022-11-16T02:44:16.690Z,7.00
2022-11-16T02:46:48.644Z,7.00
2022-11-16T02:49:20.345Z,6.90
2022-11-16T02:51:49.878Z,7.00
2022-11-16T02:57:05.810Z,7.00
2022-11-16T02:59:47.567Z,6.90
2022-11-16T03:02:52.888Z,7.00
2022-11-16T03:05:33.039Z,6.90
2022-11-16T03:08:24.653Z,6.90
2022-11-16T03:11:15.682Z,7.00
2022-11-16T03:13:45.477Z,6.90
2022-11-16T03:16:29.052Z,6.80
2022-11-16T03:19:00.029Z,7.00
2022-11-16T03:21:45.364Z,7.00
2022-11-16T03:27:35.079Z,7.20
2022-11-16T03:30:12.474Z,7.20
2022-11-16T03:33:11.817Z,7.10
2022-11-16T03:35:57.430Z,6.80
2022-11-16T03:38:28.684Z,6.90
2022-11-16T03:41:02.706Z,6.90
2022-11-16T03:43:33.038Z,6.80
2022-11-16T03:48:37.929Z,6.70
2022-11-16T03:51:07.749Z,6.50
2022-11-16T04:14:39.469Z,6.80
2022-11-16T04:17:35.232Z,6.10
2022-11-16T04:25:42.291Z,6.50
2022-11-16T04:31:08.370Z,6.60
2022-11-16T05:04:44.968Z,6.60
2022-11-16T05:07:15.605Z,6.60
2022-11-16T05:09:46.703Z,6.50
2022-11-16T05:12:20.792Z,6.50
2022-11-16T05:17:18.620Z,6.70
2022-11-16T05:27:31.833Z,6.80
2022-11-16T06:41:56.314Z,6.90
2022-11-16T07:09:11.159Z,6.80
2022-11-16T07:26:35.851Z,6.60
2022-11-16T07:36:31.885Z,6.30
2022-11-16T07:49:17.324Z,6.50
2022-11-16T07:54:16.253Z,6.70
2022-11-16T08:19:03.477Z,7.30
2022-11-16T08:31:33.619Z,7.60
2022-11-16T08:48:58.021Z,7.70
2022-11-16T08:51:29.787Z,7.80
2022-11-16T08:54:00.040Z,7.70
2022-11-16T09:01:31.403Z,7.90
2022-11-16T09:06:29.484Z,7.90
2022-11-16T09:08:59.631Z,7.90
2022-11-16T09:13:57.403Z,8.10
2022-11-16T09:18:56.815Z,8.10
2022-11-16T09:21:30.232Z,8.20
2022-11-16T09:23:59.316Z,8.20
2022-11-16T09:29:03.310Z,8.30
2022-11-16T09:31:37.212Z,8.30
2022-11-16T09:34:06.347Z,8.10
2022-11-16T09:42:44.333Z,8.30
2022-11-16T09:45:40.229Z,8.30
2022-11-16T09:48:13.705Z,8.40
2022-11-16T09:51:08.200Z,8.50
2022-11-16T09:54:03.683Z,8.40
2022-11-16T09:56:36.890Z,8.50
2022-11-16T10:02:13.949Z,8.50
2022-11-16T10:04:58.265Z,8.50
2022-11-16T10:12:54.769Z,8.60
2022-11-16T10:18:38.557Z,8.60
2022-11-16T10:24:14.360Z,8.60
2022-11-16T10:29:41.196Z,8.70
2022-11-16T10:32:18.819Z,8.70
2022-11-16T10:34:53.581Z,8.50
2022-11-16T10:37:23.605Z,8.60
2022-11-16T10:39:54.297Z,8.50
2022-11-16T10:42:54.908Z,8.60
2022-11-16T10:45:45.989Z,8.60
2022-11-16T10:48:42.862Z,8.60
2022-11-16T10:51:11.948Z,8.40
2022-11-16T10:53:44.319Z,8.70
2022-11-16T10:56:30.155Z,8.70
2022-11-16T10:59:03.299Z,8.60
2022-11-16T11:01:53.297Z,8.60
2022-11-16T11:09:33.864Z,8.50
2022-11-16T11:12:32.158Z,8.00
2022-11-16T11:15:04.704Z,8.60
2022-11-16T11:17:35.486Z,8.50
2022-11-16T11:20:12.700Z,8.20
2022-11-16T11:22:58.093Z,8.20
2022-11-16T11:25:41.242Z,8.60
2022-11-16T11:28:32.911Z,8.10
2022-11-16T11:31:13.759Z,8.10
2022-11-16T11:34:28.859Z,8.50
2022-11-16T11:37:02.500Z,8.20
2022-11-16T11:39:37.694Z,8.60
2022-11-16T11:42:15.062Z,9.10
2022-11-16T11:45:07.679Z,9.30
2022-11-16T11:48:04.004Z,8.20
2022-11-16T11:50:37.824Z,8.40
2022-11-16T11:53:13.167Z,8.50
2022-11-16T11:58:17.845Z,8.80
2022-11-16T12:01:36.670Z,8.80
2022-11-16T12:05:00.283Z,8.50
2022-11-16T12:07:55.384Z,9.00
2022-11-16T12:10:55.998Z,8.40
2022-11-16T12:14:05.345Z,8.10
2022-11-16T12:17:24.691Z,8.10
2022-11-16T12:20:20.623Z,8.50
2022-11-16T12:23:30.871Z,8.70
2022-11-16T12:26:22.824Z,8.30
2022-11-16T12:29:21.937Z,8.50
2022-11-16T12:32:19.025Z,8.50
2022-11-16T12:35:21.822Z,9.10
2022-11-16T12:38:26.431Z,8.60
2022-11-16T12:41:44.910Z,8.60
2022-11-16T12:44:20.972Z,8.50
2022-11-16T12:47:51.846Z,8.60
2022-11-16T12:50:46.602Z,8.60
2022-11-16T12:53:31.513Z,8.40
2022-11-16T12:56:48.839Z,8.00
2022-11-16T13:00:03.005Z,9.00
2022-11-16T13:02:59.063Z,8.80
2022-11-16T13:05:51.273Z,8.70
2022-11-16T13:08:41.423Z,8.50
2022-11-16T13:11:19.304Z,8.50
2022-11-16T13:13:53.379Z,8.50
2022-11-16T13:16:24.279Z,8.60
2022-11-16T13:18:53.678Z,8.50
2022-11-16T13:22:03.767Z,8.50
2022-11-16T13:24:55.486Z,8.40
2022-11-16T13:27:45.058Z,8.40
2022-11-16T13:30:26.346Z,8.70
2022-11-16T13:33:33.278Z,8.40
2022-11-16T13:36:47.760Z,8.30
2022-11-16T13:39:22.940Z,8.40
2022-11-16T13:42:13.022Z,8.40
2022-11-16T13:44:41.363Z,8.50
2022-11-16T13:47:30.424Z,8.40
2022-11-16T13:50:05.554Z,8.10
2022-11-16T13:55:47.478Z,8.20
2022-11-16T13:58:22.841Z,8.20
2022-11-16T14:01:02.231Z,8.40
2022-11-16T14:03:40.111Z,8.00
2022-11-16T14:06:30.965Z,8.20
2022-11-16T14:09:01.755Z,8.20
2022-11-16T14:11:34.741Z,8.00
2022-11-16T14:14:11.322Z,7.90
2022-11-16T14:16:47.188Z,8.10
2022-11-16T14:19:47.620Z,8.10
2022-11-16T14:22:46.710Z,8.30
2022-11-16T14:25:31.905Z,8.70
2022-11-16T14:28:24.851Z,8.10
2022-11-16T14:31:30.760Z,7.80
2022-11-16T14:34:01.619Z,8.00
2022-11-16T14:36:43.475Z,8.50
2022-11-16T14:39:37.232Z,7.60
2022-11-16T14:42:16.340Z,7.60
2022-11-16T14:44:45.131Z,8.50
2022-11-16T14:47:30.478Z,8.00
2022-11-16T14:49:58.664Z,7.90
2022-11-16T14:52:38.139Z,8.00
2022-11-16T14:55:09.803Z,8.00
2022-11-16T15:00:19.014Z,8.20
2022-11-16T15:02:51.816Z,7.70
2022-11-16T15:05:31.189Z,7.50
2022-11-16T15:08:01.324Z,8.40
2022-11-16T15:10:30.619Z,8.50
2022-11-16T15:12:59.375Z,8.10
2022-11-16T15:15:31.673Z,7.90
2022-11-16T15:18:12.990Z,8.20
2022-11-16T15:20:51.782Z,8.50
2022-11-16T15:23:23.871Z,7.40
2022-11-16T15:26:00.321Z,7.80
2022-11-16T15:28:31.682Z,8.10
2022-11-16T15:31:04.365Z,7.90
2022-11-16T15:33:40.678Z,8.00
2022-11-16T15:36:41.700Z,7.90
2022-11-16T15:39:22.120Z,7.80
2022-11-16T15:41:51.526Z,7.80
2022-11-16T15:44:23.674Z,8.30
2022-11-16T15:46:57.285Z,7.80
2022-11-16T15:49:36.583Z,7.80
2022-11-16T15:54:56.577Z,7.90
2022-11-16T15:57:26.057Z,7.40
2022-11-16T15:59:57.467Z,7.40
2022-11-16T16:02:29.391Z,7.70
2022-11-16T16:04:57.560Z,8.40
2022-11-16T16:07:43.938Z,7.50
2022-11-16T16:10:21.046Z,7.80
2022-11-16T16:13:01.286Z,7.40
2022-11-16T16:18:04.300Z,7.80
2022-11-16T16:20:34.885Z,7.70
2022-11-16T16:23:13.856Z,7.80
2022-11-16T16:28:18.316Z,7.40
2022-11-16T16:30:46.355Z,8.20
2022-11-16T16:33:21.977Z,7.80
2022-11-16T16:35:50.998Z,7.30
2022-11-16T16:45:45.542Z,7.70
2022-11-16T16:50:42.368Z,7.50
2022-11-16T16:53:14.354Z,8.10
2022-11-16T16:55:47.589Z,7.30
2022-11-16T16:58:16.906Z,7.60
2022-11-16T17:05:42.920Z,7.50
2022-11-16T17:08:11.097Z,7.30
2022-11-16T17:10:39.860Z,7.60
2022-11-16T17:13:07.999Z,8.80
2022-11-16T17:15:36.567Z,7.30
2022-11-16T17:20:34.229Z,8.00
2022-11-16T17:25:32.995Z,8.10
2022-11-16T17:28:01.491Z,7.50
2022-11-16T17:30:29.602Z,7.70
2022-11-16T17:32:58.052Z,7.90
2022-11-16T17:35:26.247Z,7.30
2022-11-16T17:45:20.156Z,7.60
2022-11-16T17:50:16.966Z,7.30
2022-11-16T17:52:44.976Z,7.40
2022-11-16T17:55:12.993Z,7.90
2022-11-16T17:57:41.208Z,7.70
2022-11-16T18:00:10.189Z,7.40
2022-11-16T18:02:38.291Z,7.30
2022-11-16T18:10:04.977Z,7.40
2022-11-16T18:15:27.074Z,7.30
2022-11-16T18:17:49.681Z,7.80
2022-11-16T18:30:12.409Z,7.40
2022-11-16T18:32:40.430Z,7.90
2022-11-16T18:35:09.995Z,7.10
2022-11-16T18:37:38.107Z,7.10
2022-11-16T18:45:04.338Z,7.30
2022-11-16T18:50:01.052Z,7.70
2022-11-16T18:54:57.703Z,7.70
2022-11-16T18:57:26.278Z,7.70
2022-11-16T19:02:22.746Z,6.90
2022-11-16T19:07:19.497Z,7.80
2022-11-16T19:09:47.611Z,7.90
2022-11-16T19:14:44.505Z,6.90
2022-11-16T19:22:09.534Z,7.30
2022-11-16T19:24:38.673Z,7.40
2022-11-16T19:34:33.619Z,6.70
2022-11-16T19:37:02.091Z,6.90
2022-11-16T19:39:30.137Z,6.70
2022-11-16T19:44:26.957Z,7.10
2022-11-16T19:46:56.821Z,7.20
2022-11-16T19:56:54.893Z,6.70
2022-11-16T20:01:51.963Z,6.70
2022-11-16T20:04:20.054Z,6.60
2022-11-16T20:09:18.042Z,7.10
2022-11-16T20:16:46.825Z,7.10
2022-11-16T20:24:16.004Z,6.90
2022-11-16T20:26:48.050Z,7.00
2022-11-16T20:29:19.542Z,7.00
2022-11-16T20:34:20.339Z,6.90
2022-11-16T20:36:50.910Z,7.00
2022-11-16T20:39:21.340Z,7.00
2022-11-16T20:44:22.273Z,6.90
2022-11-16T20:46:52.524Z,6.80
2022-11-16T21:24:32.106Z,6.70
2022-11-16T22:07:36.845Z,7.00
2022-11-16T22:10:13.619Z,6.90
2022-11-16T22:15:10.882Z,7.30
2022-11-16T22:17:44.683Z,7.00
2022-11-16T22:50:24.090Z,6.70
2022-11-16T23:26:42.460Z,6.70
2022-11-16T23:29:11.970Z,6.60
